Time;durP1;ratioP1;P1;durP2;ratioP2;P2;SDS_P1;SDS_P2;PMS_P1;PMS_P2;Temp;Humidity;BMP_temperature;BMP_pressure;BME280_temperature;BME280_humidity;BME280_pressure;Samples;Min_cycle;Max_cycle;Signal;HPM_P1;HPM_P2
2022/04/12 00:00:47;;;;;;;;;;;;;;;8.46;55.97461;101233.4;;;;-78
2022/04/12 00:05:01;;;;;;;12.7;6.5;;;;;;;;;;;;;-78
2022/04/12 00:05:47;;;;;;;;;;;;;;;8.43;55.93848;101229.6;;;;-79
2022/04/12 00:10:47;;;;;;;;;;;;;;;8.4;56.04395;101223.6;;;;-76
2022/04/12 00:15:49;;;;;;;;;;;;;;;8.36;56.18457;101218.8;;;;-78
2022/04/12 00:20:46;;;;;;;;;;;;;;;8.32;56.37793;101212.5;;;;-77
2022/04/12 00:25:49;;;;;;;;;;;;;;;8.29;56.41797;101217;;;;-78
2022/04/12 00:30:46;;;;;;;;;;;;;;;8.25;56.59082;101216;;;;-78
2022/04/12 00:35:13;;;;;;;12.7;5.8;;;;;;;;;;;;;-78
2022/04/12 00:35:47;;;;;;;;;;;;;;;8.16;56.59082;101213.8;;;;-79
2022/04/12 00:40:48;;;;;;;;;;;;;;;8.16;56.53613;101214.9;;;;-79
2022/04/12 00:45:48;;;;;;;;;;;;;;;8.14;56.66504;101218.2;;;;-77
2022/04/12 00:50:46;;;;;;;;;;;;;;;8.09;56.87988;101222.8;;;;-77
2022/04/12 00:55:45;;;;;;;;;;;;;;;8.06;56.89844;101222.8;;;;-78
2022/04/12 01:00:49;;;;;;;;;;;;;;;8.04;56.92871;101220.2;;;;-78
2022/04/12 01:05:04;;;;;;;13.1;5.9;;;;;;;;;;;;;-78
2022/04/12 01:05:47;;;;;;;;;;;;;;;8.03;57.16016;101221.7;;;;-78
2022/04/12 01:10:46;;;;;;;;;;;;;;;8.01;56.98047;101220.2;;;;-78
2022/04/12 01:15:48;;;;;;;;;;;;;;;8;57.07813;101219.9;;;;-79
2022/04/12 01:20:47;;;;;;;;;;;;;;;7.97;57.03027;101222.2;;;;-78
2022/04/12 01:25:47;;;;;;;;;;;;;;;7.95;57.11816;101223.4;;;;-78
2022/04/12 01:30:50;;;;;;;;;;;;;;;7.94;56.98242;101214.9;;;;-79
2022/04/12 01:35:03;;;;;;;12;5.7;;;;;;;;;;;;;-77
2022/04/12 01:35:48;;;;;;;;;;;;;;;7.92;57.01367;101212.4;;;;-78
2022/04/12 01:40:47;;;;;;;;;;;;;;;7.88;57.16309;101215.8;;;;-78
2022/04/12 01:45:46;;;;;;;;;;;;;;;7.87;57.09473;101208.9;;;;-78
2022/04/12 01:50:48;;;;;;;;;;;;;;;7.85;57.09082;101205.3;;;;-77
2022/04/12 01:55:45;;;;;;;;;;;;;;;7.82;56.98926;101208;;;;-78
2022/04/12 02:05:04;;;;;;;12.1;5.3;;;;;;;;;;;;;-80
2022/04/12 02:05:20;;;;;;;;;;;;;;;7.76;57.04785;101201.1;;;;-79
2022/04/12 02:10:22;;;;;;;;;;;;;;;7.73;57.09863;101189.2;;;;-77
2022/04/12 02:15:20;;;;;;;;;;;;;;;7.69;57.00586;101184.7;;;;-78
2022/04/12 02:20:23;;;;;;;;;;;;;;;7.65;57.16406;101181.6;;;;-80
2022/04/12 02:25:26;;;;;;;;;;;;;;;7.61;57.21582;101175.7;;;;-79
2022/04/12 02:30:20;;;;;;;;;;;;;;;7.56;57.39648;101168.4;;;;-78
2022/04/12 02:35:04;;;;;;;10.6;5.1;;;;;;;;;;;;;-79
2022/04/12 02:35:20;;;;;;;;;;;;;;;7.53;57.38184;101161.8;;;;-80
2022/04/12 02:40:21;;;;;;;;;;;;;;;7.47;57.50781;101162.3;;;;-78
2022/04/12 02:45:23;;;;;;;;;;;;;;;7.43;57.55664;101163.5;;;;-79
2022/04/12 02:51:28;;;;;;;;;;;;;;;7.39;57.66309;101156.4;;;;-78
2022/04/12 02:56:28;;;;;;;;;;;;;;;7.35;57.84473;101151.5;;;;-80
2022/04/12 03:01:28;;;;;;;;;;;;;;;7.31;58.06055;101144.2;;;;-78
2022/04/12 03:05:12;;;;;;;11.2;5.5;;;;;;;;;;;;;-78
2022/04/12 03:06:28;;;;;;;;;;;;;;;7.29;58.24609;101129.3;;;;-77
2022/04/12 03:16:28;;;;;;;;;;;;;;;7.23;58.48242;101137;;;;-78
2022/04/12 03:21:30;;;;;;;;;;;;;;;7.2;58.44238;101141.3;;;;-78
2022/04/12 03:26:28;;;;;;;;;;;;;;;7.17;58.42773;101136.3;;;;-80
2022/04/12 03:31:34;;;;;;;;;;;;;;;7.14;58.6123;101119.6;;;;-78
2022/04/12 03:35:06;;;;;;;11.6;5.1;;;;;;;;;;;;;-80
2022/04/12 03:36:35;;;;;;;;;;;;;;;7.13;58.59961;101123;;;;-79
2022/04/12 03:41:28;;;;;;;;;;;;;;;7.08;58.71484;101115.7;;;;-78
2022/04/12 03:46:28;;;;;;;;;;;;;;;7.05;58.67676;101116.8;;;;-79
2022/04/12 03:51:35;;;;;;;;;;;;;;;7.03;58.6748;101116.1;;;;-78
2022/04/12 03:56:28;;;;;;;;;;;;;;;7;58.57031;101126.6;;;;-79
2022/04/12 04:01:28;;;;;;;;;;;;;;;6.97;58.63281;101121.5;;;;-78
2022/04/12 04:05:06;;;;;;;8.9;5;;;;;;;;;;;;;-78
2022/04/12 04:06:28;;;;;;;;;;;;;;;6.94;58.77246;101108.9;;;;-78
2022/04/12 04:11:30;;;;;;;;;;;;;;;6.93;58.8584;101098.5;;;;-77
2022/04/12 04:16:35;;;;;;;;;;;;;;;6.92;58.8252;101088.7;;;;-79
2022/04/12 04:21:29;;;;;;;;;;;;;;;6.91;59.00098;101090.6;;;;-80
2022/04/12 04:31:28;;;;;;;;;;;;;;;6.99;58.90039;101094.3;;;;-79
2022/04/12 04:35:11;;;;;;;11.5;5.9;;;;;;;;;;;;;-78
2022/04/12 04:36:35;;;;;;;;;;;;;;;7.03;58.77441;101109.9;;;;-78
2022/04/12 04:41:28;;;;;;;;;;;;;;;7.04;58.58789;101124.3;;;;-78
2022/04/12 04:46:30;;;;;;;;;;;;;;;7.02;58.64063;101130;;;;-80
2022/04/12 04:51:28;;;;;;;;;;;;;;;7;58.64844;101128.5;;;;-79
2022/04/12 04:56:28;;;;;;;;;;;;;;;6.99;58.78027;101127.6;;;;-78
2022/04/12 05:01:31;;;;;;;;;;;;;;;6.98;58.9209;101117.8;;;;-79
2022/04/12 05:05:12;;;;;;;8.1;4.3;;;;;;;;;;;;;-78
2022/04/12 05:06:28;;;;;;;;;;;;;;;6.98;58.89941;101107.6;;;;-77
2022/04/12 05:11:28;;;;;;;;;;;;;;;6.98;58.98828;101099.6;;;;-81
2022/04/12 05:16:30;;;;;;;;;;;;;;;6.95;59.12891;101099.7;;;;-78
2022/04/12 05:21:34;;;;;;;;;;;;;;;6.96;59.13965;101087.5;;;;-78
2022/04/12 05:26:41;;;;;;;;;;;;;;;7;58.9248;101082.1;;;;-80
2022/04/12 05:31:33;;;;;;;;;;;;;;;7.01;58.88184;101074.2;;;;-79
2022/04/12 05:35:27;;;;;;;8.5;4.2;;;;;;;;;;;;;-78
2022/04/12 05:36:31;;;;;;;;;;;;;;;7.05;58.82227;101093.3;;;;-78
2022/04/12 05:41:28;;;;;;;;;;;;;;;7.08;58.60449;101113.2;;;;-78
2022/04/12 05:46:39;;;;;;;;;;;;;;;7.1;58.49512;101135.4;;;;-79
2022/04/12 05:51:39;;;;;;;;;;;;;;;7.09;58.39648;101132.9;;;;-77
2022/04/12 05:56:40;;;;;;;;;;;;;;;7.16;58.19629;101122.5;;;;-79
2022/04/12 06:01:39;;;;;;;;;;;;;;;7.43;58.08789;101133.9;;;;-77
2022/04/12 06:05:13;;;;;;;7.5;4.1;;;;;;;;;;;;;-78
2022/04/12 06:06:29;;;;;;;;;;;;;;;7.76;57.56738;101144.5;;;;-78
2022/04/12 06:11:29;;;;;;;;;;;;;;;8.09;56.94727;101142.8;;;;-77
2022/04/12 06:16:31;;;;;;;;;;;;;;;8.47;56.38574;101130.2;;;;-79
2022/04/12 06:21:29;;;;;;;;;;;;;;;8.83;55.62305;101125.9;;;;-78
2022/04/12 06:26:31;;;;;;;;;;;;;;;9.17;54.84375;101122.8;;;;-78
2022/04/12 06:31:38;;;;;;;;;;;;;;;9.53;54.53418;101120.8;;;;-80
2022/04/12 06:35:19;;;;;;;8.6;4.2;;;;;;;;;;;;;-78
2022/04/12 06:36:33;;;;;;;;;;;;;;;9.86;54.29688;101121;;;;-78
2022/04/12 06:41:40;;;;;;;;;;;;;;;10.2;53.99512;101116.4;;;;-77
2022/04/12 06:46:48;;;;;;;;;;;;;;;10.51;53.84277;101103;;;;-79
2022/04/12 06:51:38;;;;;;;;;;;;;;;10.83;53.38086;101092.2;;;;-79
2022/04/12 06:56:31;;;;;;;;;;;;;;;11.17;52.99902;101088.7;;;;-78
2022/04/12 07:01:28;;;;;;;;;;;;;;;11.49;52.55566;101086.8;;;;-78
2022/04/12 07:05:12;;;;;;;7.8;3.9;;;;;;;;;;;;;-80
2022/04/12 07:06:39;;;;;;;;;;;;;;;11.79;52.26758;101097.7;;;;-80
2022/04/12 07:15:18;;;;;;;;;;;;;;;12.17;52.29102;101088.3;;;;-80
2022/04/12 07:20:14;;;;;;;;;;;;;;;12.32;52.01758;101090.2;;;;-79
2022/04/12 07:25:14;;;;;;;;;;;;;;;12.46;51.85352;101091.5;;;;-79
2022/04/12 07:35:27;;;;;;;8.9;4.4;;;;;;;;;;;;;-79
2022/04/12 07:35:46;;;;;;;;;;;;;;;12.7;51.5918;101084.8;;;;-78
2022/04/12 07:40:14;;;;;;;;;;;;;;;12.98;51.59082;101093.1;;;;-80
2022/04/12 07:45:13;;;;;;;;;;;;;;;13.21;51.38184;101086.4;;;;-79
2022/04/12 07:50:14;;;;;;;;;;;;;;;13.44;51.09375;101086;;;;-80
2022/04/12 07:55:15;;;;;;;;;;;;;;;13.75;51.10742;101081.5;;;;-79
2022/04/12 08:00:14;;;;;;;;;;;;;;;14.06;50.73926;101075.4;;;;-79
2022/04/12 08:05:14;;;;;;;;;;;;;;;14.36;50.40137;101071.7;;;;-79
2022/04/12 08:05:24;;;;;;;10.4;4.6;;;;;;;;;;;;;-79
2022/04/12 08:10:14;;;;;;;;;;;;;;;14.61;50.08203;101066.6;;;;-79
2022/04/12 08:15:14;;;;;;;;;;;;;;;14.87;49.88477;101070.6;;;;-78
2022/04/12 08:20:14;;;;;;;;;;;;;;;15.21;49.50586;101058.3;;;;-80
2022/04/12 08:25:14;;;;;;;;;;;;;;;15.59;49.1543;101055.3;;;;-79
2022/04/12 08:30:16;;;;;;;;;;;;;;;15.93;48.57031;101057.8;;;;-78
2022/04/12 08:35:15;;;;;;;;;;;;;;;16.18;48.24707;101055.4;;;;-79
2022/04/12 08:35:24;;;;;;;8.7;4.6;;;;;;;;;;;;;-79
2022/04/12 08:40:14;;;;;;;;;;;;;;;16.44;47.86719;101057.7;;;;-79
2022/04/12 08:45:14;;;;;;;;;;;;;;;16.65;47.62988;101065.1;;;;-79
2022/04/12 08:50:14;;;;;;;;;;;;;;;16.86;47.5957;101075;;;;-79
2022/04/12 08:55:13;;;;;;;;;;;;;;;17.05;47.24219;101080;;;;-81
2022/04/12 09:00:16;;;;;;;;;;;;;;;17.21;46.36328;101076.8;;;;-81
2022/04/12 09:05:19;;;;;;;;;;;;;;;17.47;46.12891;101056;;;;-79
2022/04/12 09:05:28;;;;;;;9.6;5.2;;;;;;;;;;;;;-79
2022/04/12 09:10:14;;;;;;;;;;;;;;;17.69;45.92383;101042.5;;;;-80
2022/04/12 09:15:19;;;;;;;;;;;;;;;18.03;45.90332;101040.2;;;;-80
2022/04/12 09:20:16;;;;;;;;;;;;;;;18.48;45.41406;101039.5;;;;-78
2022/04/12 09:25:14;;;;;;;;;;;;;;;18.86;44.99805;101037.4;;;;-80
2022/04/12 09:30:15;;;;;;;;;;;;;;;19.2;44.66699;101032.8;;;;-80
2022/04/12 09:35:17;;;;;;;;;;;;;;;19.47;43.78125;101040.1;;;;-80
2022/04/12 09:35:29;;;;;;;9.5;5.5;;;;;;;;;;;;;-80
2022/04/12 09:40:15;;;;;;;;;;;;;;;19.66;43.36621;101030.9;;;;-79
2022/04/12 09:45:23;;;;;;;;;;;;;;;19.86;43.6709;101020;;;;-81
2022/04/12 09:50:17;;;;;;;;;;;;;;;20.13;43.82324;101026.9;;;;-79
2022/04/12 09:55:13;;;;;;;;;;;;;;;20.36;42.95313;101026.7;;;;-79
2022/04/12 10:00:13;;;;;;;;;;;;;;;20.63;43.37988;101025;;;;-78
2022/04/12 10:05:13;;;;;;;;;;;;;;;20.92;43.20215;101026;;;;-79
2022/04/12 10:05:23;;;;;;;11.3;5.2;;;;;;;;;;;;;-79
2022/04/12 10:10:17;;;;;;;;;;;;;;;21.24;43.80762;101016.1;;;;-79
2022/04/12 10:15:14;;;;;;;;;;;;;;;21.63;43.55762;101014.8;;;;-80
2022/04/12 10:20:18;;;;;;;;;;;;;;;21.94;43.06055;101009.4;;;;-79
2022/04/12 10:25:15;;;;;;;;;;;;;;;22.15;43.75684;100998.8;;;;-79
2022/04/12 10:30:42;;;;;;;;;;;;;;;22.28;43.67969;100971.8;;;;-80
2022/04/12 10:35:14;;;;;;;;;;;;;;;22.38;43.64355;100966.5;;;;-80
2022/04/12 10:35:25;;;;;;;9.9;5;;;;;;;;;;;;;-79
2022/04/12 10:40:13;;;;;;;;;;;;;;;22.48;44.08984;100965.3;;;;-80
2022/04/12 10:45:15;;;;;;;;;;;;;;;22.55;43.39453;100955.4;;;;-80
2022/04/12 10:50:20;;;;;;;;;;;;;;;22.65;43.93359;100949.1;;;;-80
2022/04/12 10:55:16;;;;;;;;;;;;;;;22.84;43.21582;100950.1;;;;-79
2022/04/12 11:00:18;;;;;;;;;;;;;;;23;43.01367;100953.4;;;;-81
2022/04/12 11:05:24;;;;;;;;;;;;;;;23.13;42.63281;100953.3;;;;-82
2022/04/12 11:05:52;;;;;;;7.8;5.2;;;;;;;;;;;;;-82
2022/04/12 11:10:26;;;;;;;;;;;;;;;23.18;42.83398;100956.5;;;;-80
2022/04/12 11:15:27;;;;;;;;;;;;;;;23.19;41.82129;100950;;;;-79
2022/04/12 11:20:23;;;;;;;;;;;;;;;23.15;42.02441;100954.4;;;;-80
2022/04/12 11:25:22;;;;;;;;;;;;;;;23.04;42.71777;100939.5;;;;-79
2022/04/12 11:30:16;;;;;;;;;;;;;;;22.97;43.74609;100927.6;;;;-80
2022/04/12 11:35:17;;;;;;;;;;;;;;;22.93;43.55859;100942.1;;;;-81
2022/04/12 11:35:37;;;;;;;9.1;4.3;;;;;;;;;;;;;-80
2022/04/12 11:40:15;;;;;;;;;;;;;;;22.81;42.83398;100967.5;;;;-81
2022/04/12 11:45:14;;;;;;;;;;;;;;;22.64;43.13965;100934.5;;;;-81
2022/04/12 11:50:22;;;;;;;;;;;;;;;22.46;43.46777;100904.1;;;;-79
2022/04/12 11:55:13;;;;;;;;;;;;;;;22.32;44.00488;100925.6;;;;-81
2022/04/12 12:00:13;;;;;;;;;;;;;;;22.23;43.9043;100917.6;;;;-80
2022/04/12 12:05:15;;;;;;;;;;;;;;;22.15;43.36719;100927.9;;;;-81
2022/04/12 12:05:36;;;;;;;8.7;3.4;;;;;;;;;;;;;-80
2022/04/12 12:10:16;;;;;;;;;;;;;;;22.07;43.53223;100906.4;;;;-79
2022/04/12 12:15:23;;;;;;;;;;;;;;;22.05;43.16309;100934.7;;;;-79
2022/04/12 12:45:31;;;;;;;;;;;;;;;22.98;42.9541;100905.9;;;;-72
2022/04/12 12:50:31;;;;;;;;;;;;;;;23.09;42.90625;100909;;;;-71
2022/04/12 12:55:32;;;;;;;;;;;;;;;23.16;42.37207;100904.6;;;;-72
2022/04/12 13:00:33;;;;;;;;;;;;;;;23.22;42.37695;100906.7;;;;-73
2022/04/12 13:05:31;;;;;;;;;;;;;;;23.25;42.55371;100899.9;;;;-72
2022/04/12 13:05:42;;;;;;;8.2;3.8;;;;;;;;;;;;;-73
2022/04/12 13:10:34;;;;;;;;;;;;;;;23.39;42.71582;100900.5;;;;-73
2022/04/12 13:15:31;;;;;;;;;;;;;;;23.54;42.51172;100898.8;;;;-73
2022/04/12 13:20:31;;;;;;;;;;;;;;;23.68;43.25195;100891.8;;;;-73
2022/04/12 13:25:31;;;;;;;;;;;;;;;23.9;43.18066;100893.1;;;;-72
2022/04/12 13:30:34;;;;;;;;;;;;;;;24.07;43;100884.6;;;;-73
2022/04/12 13:35:31;;;;;;;;;;;;;;;24.13;42.75293;100874.1;;;;-73
2022/04/12 13:35:45;;;;;;;9.6;4.1;;;;;;;;;;;;;-71
2022/04/12 13:40:31;;;;;;;;;;;;;;;24.14;42.09473;100871.9;;;;-73
2022/04/12 13:45:31;;;;;;;;;;;;;;;24.03;42.58105;100871.4;;;;-73
2022/04/12 13:50:31;;;;;;;;;;;;;;;23.92;42.52441;100864.9;;;;-72
2022/04/12 13:55:31;;;;;;;;;;;;;;;23.92;42.60449;100852.4;;;;-73
2022/04/12 14:00:31;;;;;;;;;;;;;;;24.03;42.97363;100841.4;;;;-73
2022/04/12 14:05:31;;;;;;;;;;;;;;;24.13;42.90234;100842.6;;;;-74
2022/04/12 14:05:50;;;;;;;8.4;4.1;;;;;;;;;;;;;-71
2022/04/12 14:10:31;;;;;;;;;;;;;;;24.24;42.66992;100839.4;;;;-72
2022/04/12 14:15:31;;;;;;;;;;;;;;;24.32;42.82715;100833.8;;;;-75
2022/04/12 14:20:31;;;;;;;;;;;;;;;24.37;43.08691;100834;;;;-73
2022/04/12 14:25:31;;;;;;;;;;;;;;;24.41;42.39746;100831.5;;;;-73
2022/04/12 14:30:31;;;;;;;;;;;;;;;24.37;43.17871;100832;;;;-72
2022/04/12 14:35:31;;;;;;;;;;;;;;;24.39;43.16895;100844.4;;;;-73
2022/04/12 14:35:53;;;;;;;8.1;4.1;;;;;;;;;;;;;-73
2022/04/12 14:40:31;;;;;;;;;;;;;;;24.34;42.85254;100835.8;;;;-73
2022/04/12 14:45:31;;;;;;;;;;;;;;;24.16;42.55859;100838;;;;-73
2022/04/12 14:50:32;;;;;;;;;;;;;;;24.03;43.18066;100844.8;;;;-73
2022/04/12 14:55:31;;;;;;;;;;;;;;;23.94;43.74805;100854.5;;;;-70
2022/04/12 15:00:31;;;;;;;;;;;;;;;23.85;44.02832;100838;;;;-68
2022/04/12 15:05:31;;;;;;;;;;;;;;;23.78;44.4375;100833;;;;-68
2022/04/12 15:05:57;;;;;;;6.9;3.9;;;;;;;;;;;;;-68
2022/04/12 15:10:31;;;;;;;;;;;;;;;23.66;44.57422;100838.6;;;;-77
2022/04/12 15:15:32;;;;;;;;;;;;;;;23.58;44.41602;100843.9;;;;-76
2022/04/12 15:20:31;;;;;;;;;;;;;;;23.46;44.45117;100848.3;;;;-77
2022/04/12 15:25:34;;;;;;;;;;;;;;;23.36;45.37305;100847;;;;-75
2022/04/12 15:30:35;;;;;;;;;;;;;;;23.27;45.01855;100852.7;;;;-76
2022/04/12 15:35:32;;;;;;;;;;;;;;;23.16;44.61621;100852;;;;-76
2022/04/12 15:36:02;;;;;;;9.4;4.7;;;;;;;;;;;;;-77
2022/04/12 15:45:35;;;;;;;;;;;;;;;23.02;44.58008;100870.4;;;;-78
2022/04/12 15:50:31;;;;;;;;;;;;;;;22.97;44.88574;100871.1;;;;-78
2022/04/12 15:55:33;;;;;;;;;;;;;;;22.96;45.13867;100877.9;;;;-77
2022/04/12 16:00:33;;;;;;;;;;;;;;;22.9;44.85547;100882;;;;-80
2022/04/12 16:05:32;;;;;;;;;;;;;;;22.78;45.37305;100878.4;;;;-81
2022/04/12 16:06:11;;;;;;;18.5;10.2;;;;;;;;;;;;;-78
2022/04/12 16:10:33;;;;;;;;;;;;;;;22.62;45.81543;100873.3;;;;-81
2022/04/12 16:15:40;;;;;;;;;;;;;;;22.46;45.75391;100872.1;;;;-82
2022/04/12 16:20:31;;;;;;;;;;;;;;;22.27;46.2959;100874.9;;;;-79
2022/04/12 16:25:31;;;;;;;;;;;;;;;22.11;46.80762;100882.3;;;;-80
2022/04/12 16:30:34;;;;;;;;;;;;;;;21.93;46.8125;100886.7;;;;-80
2022/04/12 16:35:31;;;;;;;;;;;;;;;21.75;46.99902;100891.3;;;;-78
2022/04/12 16:36:08;;;;;;;96.6;48.4;;;;;;;;;;;;;-79
2022/04/12 16:40:31;;;;;;;;;;;;;;;21.57;47.47266;100891.6;;;;-79
2022/04/12 16:45:31;;;;;;;;;;;;;;;21.43;47.45703;100892;;;;-79
2022/04/12 16:50:32;;;;;;;;;;;;;;;21.25;47.79395;100873.8;;;;-79
2022/04/12 16:55:33;;;;;;;;;;;;;;;21.12;47.99707;100886;;;;-78
2022/04/12 17:00:39;;;;;;;;;;;;;;;20.98;47.95898;100891.7;;;;-79
2022/04/12 17:05:35;;;;;;;;;;;;;;;20.83;48.14844;100901.1;;;;-80
2022/04/12 17:06:11;;;;;;;32.2;17.5;;;;;;;;;;;;;-80
2022/04/12 17:10:31;;;;;;;;;;;;;;;20.67;47.92676;100906.2;;;;-79
2022/04/12 17:15:32;;;;;;;;;;;;;;;20.51;48.13672;100903.8;;;;-78
2022/04/12 17:20:31;;;;;;;;;;;;;;;20.35;48.41699;100910.7;;;;-79
2022/04/12 17:25:35;;;;;;;;;;;;;;;20.2;48.61816;100911;;;;-79
2022/04/12 17:30:34;;;;;;;;;;;;;;;20.05;48.81738;100919.9;;;;-80
2022/04/12 17:35:38;;;;;;;;;;;;;;;19.91;48.99609;100924.2;;;;-79
2022/04/12 17:36:13;;;;;;;19.2;10.9;;;;;;;;;;;;;-80
2022/04/12 17:40:31;;;;;;;;;;;;;;;19.76;49.13965;100934;;;;-79
2022/04/12 17:45:31;;;;;;;;;;;;;;;19.61;49.33887;100940.2;;;;-80
2022/04/12 17:50:31;;;;;;;;;;;;;;;19.46;49.4707;100937.5;;;;-79
2022/04/12 17:55:31;;;;;;;;;;;;;;;19.31;49.48926;100937.1;;;;-80
2022/04/12 18:00:32;;;;;;;;;;;;;;;19.16;49.60938;100944.9;;;;-81
2022/04/12 18:05:34;;;;;;;;;;;;;;;19.03;49.86719;100946.1;;;;-80
2022/04/12 18:06:27;;;;;;;16.5;8.9;;;;;;;;;;;;;-79
2022/04/12 18:14:08;;;;;;;;;;;;;;;18.79;50.20508;100945.8;;;;-78
2022/04/12 18:19:06;;;;;;;;;;;;;;;18.65;50.29199;100956.7;;;;-80
2022/04/12 18:24:06;;;;;;;;;;;;;;;18.5;50.44531;100960.1;;;;-80
2022/04/12 18:29:09;;;;;;;;;;;;;;;18.35;50.48438;100959.1;;;;-80
2022/04/12 18:34:06;;;;;;;;;;;;;;;18.2;50.61621;100962.7;;;;-81
2022/04/12 18:36:19;;;;;;;12.4;7.1;;;;;;;;;;;;;-81
2022/04/12 18:39:09;;;;;;;;;;;;;;;18.04;50.81348;100967.6;;;;-81
2022/04/12 18:44:09;;;;;;;;;;;;;;;17.9;50.99023;100968.9;;;;-80
2022/04/12 18:49:06;;;;;;;;;;;;;;;17.76;51.13281;100976.9;;;;-80
2022/04/12 18:54:06;;;;;;;;;;;;;;;17.63;51.32129;100982.9;;;;-80
2022/04/12 18:59:06;;;;;;;;;;;;;;;17.5;51.55566;100989.5;;;;-82
2022/04/12 19:04:07;;;;;;;;;;;;;;;17.38;51.7002;100993.9;;;;-80
2022/04/12 19:06:23;;;;;;;11.7;5.9;;;;;;;;;;;;;-81
2022/04/12 19:09:06;;;;;;;;;;;;;;;17.29;51.76953;100996.5;;;;-81
2022/04/12 19:14:06;;;;;;;;;;;;;;;17.2;51.87305;101001.3;;;;-78
2022/04/12 19:19:11;;;;;;;;;;;;;;;17.11;52.04297;101006.5;;;;-79
2022/04/12 19:24:08;;;;;;;;;;;;;;;17.03;52.1582;101020;;;;-80
2022/04/12 19:29:06;;;;;;;;;;;;;;;16.95;52.25;101023.3;;;;-79
2022/04/12 19:34:18;;;;;;;;;;;;;;;16.87;52.27539;101027;;;;-79
2022/04/12 19:36:24;;;;;;;8.4;4.9;;;;;;;;;;;;;-81
2022/04/12 19:39:06;;;;;;;;;;;;;;;16.79;52.35645;101033.9;;;;-80
2022/04/12 19:44:07;;;;;;;;;;;;;;;16.72;52.5625;101055.6;;;;-79
2022/04/12 19:49:08;;;;;;;;;;;;;;;16.63;52.68848;101062.8;;;;-78
2022/04/12 19:54:06;;;;;;;;;;;;;;;16.52;52.73047;101056.8;;;;-79
2022/04/12 19:59:06;;;;;;;;;;;;;;;16.42;52.71973;101058;;;;-78
2022/04/12 20:04:07;;;;;;;;;;;;;;;16.33;52.6748;101062.4;;;;-80
2022/04/12 20:06:27;;;;;;;8.2;4.7;;;;;;;;;;;;;-78
2022/04/12 20:09:08;;;;;;;;;;;;;;;16.24;52.76465;101057.9;;;;-79
2022/04/12 20:14:06;;;;;;;;;;;;;;;16.15;52.75488;101060.5;;;;-79
2022/04/12 20:19:06;;;;;;;;;;;;;;;16.06;52.86816;101062.9;;;;-79
2022/04/12 20:24:07;;;;;;;;;;;;;;;15.97;53.16113;101067.8;;;;-81
2022/04/12 20:29:06;;;;;;;;;;;;;;;15.89;53.20898;101073.3;;;;-80
2022/04/12 20:34:06;;;;;;;;;;;;;;;15.81;53.25684;101078.7;;;;-80
2022/04/12 20:36:28;;;;;;;11;4.7;;;;;;;;;;;;;-79
2022/04/12 20:39:06;;;;;;;;;;;;;;;15.74;53.42871;101073.7;;;;-79
2022/04/12 20:44:06;;;;;;;;;;;;;;;15.65;53.40625;101072.4;;;;-80
2022/04/12 20:49:07;;;;;;;;;;;;;;;15.57;53.64453;101076.5;;;;-79
2022/04/12 20:54:10;;;;;;;;;;;;;;;15.47;53.82422;101077;;;;-79
2022/04/12 20:59:09;;;;;;;;;;;;;;;15.39;53.85938;101085.5;;;;-81
2022/04/12 21:04:06;;;;;;;;;;;;;;;15.31;53.97266;101089.8;;;;-79
2022/04/12 21:06:30;;;;;;;9;4.7;;;;;;;;;;;;;-80
2022/04/12 21:09:08;;;;;;;;;;;;;;;15.18;54.10547;101084.5;;;;-79
2022/04/12 21:14:11;;;;;;;;;;;;;;;15.07;54.27051;101084.6;;;;-80
2022/04/12 21:19:17;;;;;;;;;;;;;;;14.95;54.37988;101084.7;;;;-78
2022/04/12 21:24:06;;;;;;;;;;;;;;;14.83;54.39941;101082.4;;;;-82
2022/04/12 21:29:06;;;;;;;;;;;;;;;14.7;54.71973;101099.5;;;;-78
2022/04/12 21:34:06;;;;;;;;;;;;;;;14.58;54.86328;101103.3;;;;-78
2022/04/12 21:36:32;;;;;;;9.1;5;;;;;;;;;;;;;-79
2022/04/12 21:39:06;;;;;;;;;;;;;;;14.46;55.0293;101113;;;;-79
2022/04/12 21:44:06;;;;;;;;;;;;;;;14.35;55.21777;101116;;;;-77
2022/04/12 21:49:07;;;;;;;;;;;;;;;14.25;55.35059;101118.3;;;;-78
2022/04/12 21:54:10;;;;;;;;;;;;;;;14.13;55.50391;101113.1;;;;-78
2022/04/12 21:59:06;;;;;;;;;;;;;;;14.02;55.61426;101118;;;;-80
2022/04/12 22:04:06;;;;;;;;;;;;;;;13.91;55.81348;101121.4;;;;-78
2022/04/12 22:06:37;;;;;;;11.8;5;;;;;;;;;;;;;-78
2022/04/12 22:09:06;;;;;;;;;;;;;;;13.79;55.86621;101134.1;;;;-78
2022/04/12 22:14:06;;;;;;;;;;;;;;;13.69;55.98828;101127.2;;;;-77
2022/04/12 22:19:06;;;;;;;;;;;;;;;13.6;56.15625;101132.1;;;;-78
2022/04/12 22:24:06;;;;;;;;;;;;;;;13.48;56.11719;101126.2;;;;-80
2022/04/12 22:29:06;;;;;;;;;;;;;;;13.43;56.31445;101135.7;;;;-78
2022/04/12 22:34:06;;;;;;;;;;;;;;;13.37;56.44043;101137.6;;;;-78
2022/04/12 22:36:36;;;;;;;9.5;5.1;;;;;;;;;;;;;-78
2022/04/12 22:39:06;;;;;;;;;;;;;;;13.28;56.38379;101136.1;;;;-79
2022/04/12 22:44:06;;;;;;;;;;;;;;;13.19;56.81055;101140.6;;;;-78
2022/04/12 22:49:08;;;;;;;;;;;;;;;13.1;56.5293;101130.8;;;;-78
2022/04/12 22:54:06;;;;;;;;;;;;;;;13.01;56.79785;101138.5;;;;-79
2022/04/12 22:59:06;;;;;;;;;;;;;;;12.91;56.875;101148.5;;;;-80
2022/04/12 23:04:06;;;;;;;;;;;;;;;12.84;57.40234;101149;;;;-80
2022/04/12 23:06:37;;;;;;;12;5.9;;;;;;;;;;;;;-79
2022/04/12 23:09:06;;;;;;;;;;;;;;;12.75;57.64746;101149.8;;;;-79
2022/04/12 23:14:06;;;;;;;;;;;;;;;12.66;57.43457;101159.3;;;;-77
2022/04/12 23:19:06;;;;;;;;;;;;;;;12.6;57.84082;101164.2;;;;-77
2022/04/12 23:24:06;;;;;;;;;;;;;;;12.54;57.9668;101173.8;;;;-79
2022/04/12 23:29:07;;;;;;;;;;;;;;;12.49;57.9502;101180.9;;;;-78
2022/04/12 23:34:06;;;;;;;;;;;;;;;12.41;57.97266;101182.1;;;;-79
2022/04/12 23:36:42;;;;;;;10.6;5.6;;;;;;;;;;;;;-78
2022/04/12 23:39:06;;;;;;;;;;;;;;;12.34;58.1543;101182.5;;;;-78
2022/04/12 23:44:08;;;;;;;;;;;;;;;12.27;58.25684;101182.3;;;;-78
2022/04/12 23:49:06;;;;;;;;;;;;;;;12.21;58.31543;101186.2;;;;-79
2022/04/12 23:54:08;;;;;;;;;;;;;;;12.13;58.60645;101194.9;;;;-79
2022/04/12 23:59:08;;;;;;;;;;;;;;;12.08;58.44336;101208.5;;;;-78
